Tappahannock, Virginia
Current Conditions -  °F | °C
As of 7:35 AM on Monday 24 Nov 2014 (Local Time) from KXSA Reporting Station
Broken Clouds Broken Clouds  
Wind Chill: 67°   Ceiling: 2000
Heat Index: 67°   Visibility: 10mi
Dew Point: 60°   Wind: 8mph
Humidity: 77%   Direction: 200°SSW
Pressure: 29.73"   Gusts: NA
Location:  37.93°N, 76.86°W
Report Text: KXSA 241235Z AUTO 20007KT 160V220 10SM SCT016 BKN020 BKN030 20/15 A2973 RMK AO2 T01950154
Loading
Personal Weather Stations






























Interactive Weather Map New forecast layout! Learn more

10-Day Weather Forecast

Advertisements
Track Severe Weather on mobile